createdAt,value
2017-12-20T00:02:28.916Z,16.10
2017-12-20T00:04:59.752Z,12.73
2017-12-20T00:07:30.404Z,9.67
2017-12-20T00:10:00.985Z,9.03
2017-12-20T00:12:32.193Z,11.70
2017-12-20T00:15:02.885Z,12.47
2017-12-20T00:17:33.465Z,11.97
2017-12-20T00:20:03.720Z,11.97
2017-12-20T00:22:34.652Z,12.73
2017-12-20T00:25:05.392Z,12.50
2017-12-20T00:27:36.012Z,12.07
2017-12-20T00:30:06.893Z,8.37
2017-12-20T00:32:37.515Z,10.27
2017-12-20T00:35:07.927Z,11.97
2017-12-20T00:37:38.633Z,11.00
2017-12-20T00:40:08.736Z,13.27
2017-12-20T00:42:39.124Z,10.77
2017-12-20T00:45:09.880Z,12.10
2017-12-20T00:47:40.229Z,12.73
2017-12-20T00:50:11.160Z,14.63
2017-12-20T00:52:41.811Z,12.03
2017-12-20T00:55:12.370Z,11.17
2017-12-20T00:57:42.959Z,10.87
2017-12-20T01:00:13.892Z,14.73
2017-12-20T01:02:44.453Z,12.30
2017-12-20T01:05:15.035Z,10.13
2017-12-20T01:07:45.807Z,10.13
2017-12-20T01:10:16.708Z,9.30
2017-12-20T01:12:47.008Z,11.77
2017-12-20T01:15:18.706Z,13.30
2017-12-20T01:17:50.051Z,11.17
2017-12-20T01:20:20.990Z,7.90
2017-12-20T01:22:51.990Z,13.67
2017-12-20T01:25:23.355Z,11.07
2017-12-20T01:27:53.749Z,12.13
2017-12-20T01:30:25.562Z,10.00
2017-12-20T01:32:56.572Z,13.97
2017-12-20T01:35:28.057Z,7.80
2017-12-20T01:37:58.615Z,13.90
2017-12-20T01:40:29.286Z,13.17
2017-12-20T01:42:59.844Z,13.63
2017-12-20T01:45:31.192Z,14.93
2017-12-20T01:48:02.023Z,17.87
2017-12-20T01:50:32.740Z,15.70
2017-12-20T01:53:03.219Z,13.60
2017-12-20T01:55:33.720Z,11.40
2017-12-20T01:58:04.569Z,12.70
2017-12-20T02:00:35.356Z,12.33
2017-12-20T02:03:06.576Z,17.57
2017-12-20T02:05:38.147Z,11.40
2017-12-20T02:08:09.250Z,16.80
2017-12-20T02:10:40.311Z,15.73
2017-12-20T02:13:11.257Z,15.30
2017-12-20T02:15:42.728Z,14.27
2017-12-20T02:18:14.614Z,15.90
2017-12-20T02:20:45.395Z,14.53
2017-12-20T02:23:16.779Z,15.37
2017-12-20T02:25:47.714Z,14.50
2017-12-20T02:28:18.775Z,15.63
2017-12-20T02:30:49.549Z,13.30
2017-12-20T02:33:30.903Z,13.27
2017-12-20T02:36:01.653Z,13.50
2017-12-20T02:38:37.523Z,14.40
2017-12-20T02:41:08.981Z,16.63
2017-12-20T02:43:39.490Z,12.13
2017-12-20T02:46:10.475Z,18.07
2017-12-20T02:48:41.819Z,13.43
2017-12-20T02:51:12.338Z,14.43
2017-12-20T02:53:43.538Z,13.70
2017-12-20T02:56:15.276Z,14.30
2017-12-20T02:58:45.804Z,15.87
2017-12-20T03:01:18.402Z,12.00
2017-12-20T03:03:48.791Z,12.57
2017-12-20T03:06:20.462Z,17.17
2017-12-20T03:08:51.069Z,12.70
2017-12-20T03:11:22.310Z,19.43
2017-12-20T03:13:53.424Z,15.17
2017-12-20T03:16:24.625Z,13.60
2017-12-20T03:18:54.908Z,12.07
2017-12-20T03:21:25.670Z,14.80
2017-12-20T03:23:56.013Z,13.50
2017-12-20T03:26:27.329Z,15.30
2017-12-20T03:28:57.734Z,15.67
2017-12-20T03:31:28.949Z,16.27
2017-12-20T03:33:59.498Z,20.50
2017-12-20T03:36:31.460Z,14.97
2017-12-20T03:39:01.994Z,14.73
2017-12-20T03:41:32.798Z,14.37
2017-12-20T03:44:03.455Z,12.87
2017-12-20T03:46:34.057Z,15.00
2017-12-20T03:49:05.078Z,17.20
2017-12-20T03:51:35.551Z,11.53
2017-12-20T03:54:07.189Z,13.17
2017-12-20T03:56:38.822Z,10.07
2017-12-20T03:59:09.343Z,13.47
2017-12-20T04:01:40.994Z,13.87
2017-12-20T04:04:11.861Z,13.13
2017-12-20T04:06:42.306Z,15.43
2017-12-20T04:09:13.608Z,15.00
2017-12-20T04:11:44.394Z,16.23
2017-12-20T04:14:15.784Z,16.90
2017-12-20T04:16:46.275Z,15.50
2017-12-20T04:19:17.619Z,15.90
2017-12-20T04:21:49.809Z,18.43
2017-12-20T04:24:20.111Z,14.90
2017-12-20T04:26:50.657Z,18.63
2017-12-20T04:29:21.934Z,13.67
2017-12-20T04:31:52.446Z,15.30
2017-12-20T04:34:22.989Z,18.47
2017-12-20T04:36:55.373Z,16.77
2017-12-20T04:39:25.692Z,13.13
2017-12-20T04:41:57.050Z,18.80
2017-12-20T04:44:27.842Z,15.33
2017-12-20T04:46:59.289Z,17.97
2017-12-20T04:49:30.309Z,14.87
2017-12-20T04:52:00.834Z,18.20
2017-12-20T04:54:31.542Z,14.73
2017-12-20T04:57:02.269Z,14.20
2017-12-20T04:59:33.653Z,17.17
2017-12-20T05:02:04.266Z,14.90
2017-12-20T05:04:36.367Z,18.00
2017-12-20T05:07:07.540Z,16.07
2017-12-20T05:09:37.974Z,15.40
2017-12-20T05:12:09.723Z,19.50
2017-12-20T05:15:10.738Z,17.90
2017-12-20T05:17:41.706Z,16.70
2017-12-20T05:20:12.261Z,19.80
2017-12-20T05:22:42.825Z,21.93
2017-12-20T05:25:13.033Z,23.27
2017-12-20T05:27:43.791Z,27.60
2017-12-20T05:30:15.138Z,21.63
2017-12-20T05:32:45.893Z,18.10
2017-12-20T05:35:16.348Z,19.50
2017-12-20T05:37:46.825Z,16.20
2017-12-20T05:40:17.777Z,23.27
2017-12-20T05:42:48.727Z,23.37
2017-12-20T05:45:19.070Z,21.07
2017-12-20T05:47:50.005Z,19.97
2017-12-20T05:50:20.379Z,18.53
2017-12-20T05:52:50.901Z,22.30
2017-12-20T05:55:21.221Z,25.87
2017-12-20T05:57:52.943Z,23.70
2017-12-20T06:00:23.388Z,20.97
2017-12-20T06:02:53.618Z,20.03
2017-12-20T06:05:23.817Z,22.93
2017-12-20T06:08:01.187Z,21.70
2017-12-20T06:10:35.948Z,25.60
2017-12-20T06:13:13.172Z,21.93
2017-12-20T06:15:53.101Z,26.70
2017-12-20T06:18:29.845Z,20.23
2017-12-20T06:21:07.169Z,26.83
2017-12-20T06:23:37.608Z,23.47
2017-12-20T06:26:08.397Z,31.50
2017-12-20T06:28:38.858Z,24.27
2017-12-20T06:31:10.124Z,21.43
2017-12-20T06:33:40.869Z,25.20
2017-12-20T06:36:11.180Z,31.60
2017-12-20T06:38:41.470Z,23.60
2017-12-20T06:41:11.714Z,26.57
2017-12-20T06:43:43.208Z,27.70
2017-12-20T06:46:13.877Z,28.73
2017-12-20T06:48:44.410Z,23.40
2017-12-20T06:51:15.576Z,31.33
2017-12-20T06:53:47.007Z,20.63
2017-12-20T06:56:18.138Z,19.17
2017-12-20T06:58:48.741Z,30.70
2017-12-20T07:01:19.378Z,17.17
2017-12-20T07:03:49.791Z,26.53
2017-12-20T07:06:20.226Z,24.77
2017-12-20T07:08:51.036Z,27.13
2017-12-20T07:11:22.284Z,18.97
2017-12-20T07:13:53.986Z,23.87
2017-12-20T07:16:24.726Z,22.00
2017-12-20T07:18:55.605Z,22.30
2017-12-20T07:21:26.002Z,19.60
2017-12-20T07:23:57.363Z,21.20
2017-12-20T07:26:27.956Z,22.83
2017-12-20T07:28:59.289Z,22.33
2017-12-20T07:31:29.750Z,26.63
2017-12-20T07:34:01.165Z,22.33
2017-12-20T07:36:32.581Z,20.20
2017-12-20T07:39:03.281Z,22.27
2017-12-20T07:41:34.343Z,20.83
2017-12-20T07:44:04.977Z,22.60
2017-12-20T07:46:35.359Z,21.77
2017-12-20T07:49:06.048Z,19.77
2017-12-20T07:51:36.455Z,19.80
2017-12-20T07:54:07.579Z,21.40
2017-12-20T07:56:38.764Z,20.80
2017-12-20T07:59:09.174Z,24.83
2017-12-20T08:01:39.954Z,19.47
2017-12-20T08:04:10.696Z,24.23
2017-12-20T08:06:42.901Z,24.77
2017-12-20T08:09:13.371Z,20.77
2017-12-20T08:11:43.864Z,19.77
2017-12-20T08:14:14.360Z,24.67
2017-12-20T08:16:45.464Z,22.80
2017-12-20T08:19:15.822Z,24.20
2017-12-20T08:21:46.578Z,24.23
2017-12-20T08:24:17.398Z,22.53
2017-12-20T08:26:48.074Z,30.53
2017-12-20T08:29:18.650Z,18.40
2017-12-20T08:31:50.324Z,27.53
2017-12-20T08:34:22.184Z,31.83
2017-12-20T08:36:54.674Z,28.33
2017-12-20T08:39:25.216Z,27.20
2017-12-20T08:41:55.906Z,28.33
2017-12-20T08:44:26.478Z,25.93
2017-12-20T08:46:57.497Z,23.07
2017-12-20T08:49:28.584Z,24.33
2017-12-20T08:51:59.744Z,22.70
2017-12-20T08:54:30.646Z,25.80
2017-12-20T08:57:01.213Z,23.43
2017-12-20T08:59:32.580Z,26.77
2017-12-20T09:02:03.781Z,27.53
2017-12-20T09:04:34.564Z,30.33
2017-12-20T09:07:05.624Z,29.57
2017-12-20T09:09:36.185Z,29.70
2017-12-20T09:12:06.663Z,28.30
2017-12-20T09:14:37.185Z,27.63
2017-12-20T09:17:08.498Z,30.10
2017-12-20T09:19:39.013Z,29.27
2017-12-20T09:22:09.621Z,30.83
2017-12-20T09:24:40.281Z,27.37
2017-12-20T09:27:10.815Z,31.97
2017-12-20T09:29:41.251Z,32.20
2017-12-20T09:32:11.838Z,32.27
2017-12-20T09:34:43.061Z,35.83
2017-12-20T09:37:14.317Z,29.40
2017-12-20T09:39:45.558Z,33.20
2017-12-20T09:42:16.240Z,32.90
2017-12-20T09:44:47.882Z,30.17
2017-12-20T09:47:18.330Z,36.63
2017-12-20T09:49:48.922Z,36.20
2017-12-20T09:52:19.844Z,28.00
2017-12-20T09:54:50.327Z,26.87
2017-12-20T09:57:20.947Z,31.10
2017-12-20T09:59:51.360Z,30.67
2017-12-20T10:02:23.009Z,26.23
2017-12-20T10:04:53.477Z,25.93
2017-12-20T10:07:24.873Z,24.13
2017-12-20T10:09:55.409Z,28.37
2017-12-20T10:12:25.988Z,31.93
2017-12-20T10:14:57.040Z,33.33
2017-12-20T10:17:27.744Z,35.37
2017-12-20T10:20:02.040Z,34.13
2017-12-20T10:22:34.277Z,28.67
2017-12-20T10:25:06.471Z,27.83
2017-12-20T10:27:38.899Z,29.73
2017-12-20T10:30:09.926Z,29.37
2017-12-20T10:35:11.235Z,29.43
2017-12-20T10:37:41.558Z,28.83
2017-12-20T10:40:12.282Z,31.17
2017-12-20T10:42:43.343Z,30.37
2017-12-20T10:45:13.867Z,27.87
2017-12-20T10:47:44.402Z,32.00
2017-12-20T10:50:15.703Z,31.07
2017-12-20T10:52:47.165Z,29.10
2017-12-20T10:55:19.176Z,26.83
2017-12-20T10:57:49.484Z,25.27
2017-12-20T11:00:20.013Z,31.17
2017-12-20T11:02:50.973Z,28.87
2017-12-20T11:05:22.436Z,35.30
2017-12-20T11:07:53.061Z,35.73
2017-12-20T11:10:24.067Z,30.20
2017-12-20T11:12:54.753Z,29.67
2017-12-20T11:15:25.569Z,33.23
2017-12-20T11:17:56.923Z,35.73
2017-12-20T11:20:28.662Z,25.50
2017-12-20T11:22:59.418Z,32.67
2017-12-20T11:25:30.566Z,32.83
2017-12-20T11:28:02.089Z,26.17
2017-12-20T11:30:32.789Z,28.20
2017-12-20T11:33:04.075Z,25.77
2017-12-20T11:35:34.842Z,31.90
2017-12-20T11:38:06.306Z,27.70
2017-12-20T11:40:37.339Z,30.60
2017-12-20T11:43:08.717Z,30.17
2017-12-20T11:45:40.240Z,33.87
2017-12-20T11:48:11.893Z,34.10
2017-12-20T11:50:43.959Z,30.73
2017-12-20T11:53:15.098Z,33.73
2017-12-20T11:55:46.018Z,29.47
2017-12-20T11:58:17.288Z,38.97
2017-12-20T12:00:48.479Z,34.37
2017-12-20T12:03:20.083Z,32.17
2017-12-20T12:05:51.474Z,34.90
2017-12-20T12:08:22.439Z,32.27
2017-12-20T12:10:52.930Z,36.53
2017-12-20T12:13:23.426Z,38.17
2017-12-20T12:15:53.964Z,38.80
2017-12-20T12:18:24.681Z,39.80
2017-12-20T12:20:55.694Z,32.27
2017-12-20T12:23:27.090Z,30.40
2017-12-20T12:25:57.916Z,40.97
2017-12-20T12:28:29.475Z,40.90
2017-12-20T12:31:00.169Z,40.50
2017-12-20T12:33:32.028Z,35.47
2017-12-20T12:36:26.342Z,33.33
2017-12-20T12:38:59.712Z,47.13
2017-12-20T12:41:30.125Z,38.27
2017-12-20T12:44:01.320Z,35.30
2017-12-20T12:46:32.073Z,39.13
2017-12-20T12:49:02.631Z,35.43
2017-12-20T12:51:33.818Z,31.77
2017-12-20T12:54:05.050Z,34.07
2017-12-20T12:56:35.366Z,34.10
2017-12-20T12:59:05.659Z,34.90
2017-12-20T13:01:36.228Z,33.50
2017-12-20T13:04:07.066Z,32.67
2017-12-20T13:06:38.314Z,32.40
2017-12-20T13:09:08.878Z,26.60
2017-12-20T13:11:39.820Z,31.57
2017-12-20T13:14:10.845Z,31.93
2017-12-20T13:16:42.802Z,32.67
2017-12-20T13:19:13.966Z,33.87
2017-12-20T13:21:44.508Z,32.27
2017-12-20T13:24:15.091Z,37.43
2017-12-20T13:26:47.396Z,39.37
2017-12-20T13:29:17.883Z,35.17
2017-12-20T13:31:49.076Z,38.23
2017-12-20T13:34:20.135Z,38.13
2017-12-20T13:36:50.550Z,40.17
2017-12-20T13:39:20.876Z,38.60
2017-12-20T13:41:51.420Z,33.83
2017-12-20T13:44:22.111Z,35.53
2017-12-20T13:46:52.789Z,37.67
2017-12-20T13:49:23.687Z,32.90
2017-12-20T13:51:54.555Z,34.93
2017-12-20T13:54:25.265Z,32.70
2017-12-20T13:56:55.653Z,38.40
2017-12-20T13:59:26.168Z,32.27
2017-12-20T14:01:56.559Z,37.40
2017-12-20T14:04:28.388Z,36.77
2017-12-20T14:06:59.050Z,40.20
2017-12-20T14:09:30.601Z,32.93
2017-12-20T14:12:02.530Z,38.93
2017-12-20T14:14:33.387Z,30.53
2017-12-20T14:17:04.540Z,26.80
2017-12-20T14:19:35.026Z,32.90
2017-12-20T14:22:04.794Z,34.20
2017-12-20T14:24:36.346Z,32.73
2017-12-20T14:27:08.394Z,34.13
2017-12-20T14:29:38.901Z,26.03
2017-12-20T14:32:10.758Z,30.87
2017-12-20T14:34:41.201Z,33.30
2017-12-20T14:37:12.480Z,36.00
2017-12-20T14:39:43.112Z,27.53
2017-12-20T14:42:13.549Z,37.83
2017-12-20T14:44:44.778Z,36.40
2017-12-20T14:47:15.089Z,34.57
2017-12-20T14:49:46.326Z,36.73
2017-12-20T14:52:16.748Z,28.30
2017-12-20T14:54:47.459Z,36.30
2017-12-20T14:57:18.073Z,29.17
2017-12-20T14:59:49.559Z,29.87
2017-12-20T15:02:22.022Z,34.60
2017-12-20T15:04:55.853Z,31.93
2017-12-20T15:07:26.411Z,31.57
2017-12-20T15:09:57.937Z,36.20
2017-12-20T15:12:29.392Z,33.73
2017-12-20T15:15:00.118Z,35.70
2017-12-20T15:17:31.970Z,36.97
2017-12-20T15:20:03.465Z,34.90
2017-12-20T15:22:34.678Z,36.53
2017-12-20T15:25:06.554Z,31.17
2017-12-20T15:27:37.038Z,30.27
2017-12-20T15:30:07.587Z,31.50
2017-12-20T15:32:39.246Z,32.70
2017-12-20T15:35:09.891Z,34.77
2017-12-20T15:37:40.563Z,31.00
2017-12-20T15:40:11.281Z,29.73
2017-12-20T15:42:42.030Z,33.97
2017-12-20T15:45:12.731Z,30.97
2017-12-20T15:47:43.482Z,27.33
2017-12-20T15:50:14.392Z,34.43
2017-12-20T15:52:44.897Z,32.13
2017-12-20T15:55:15.574Z,34.97
2017-12-20T15:57:46.940Z,34.67
2017-12-20T16:00:17.562Z,31.40
2017-12-20T16:02:48.095Z,33.53
2017-12-20T16:05:19.193Z,34.53
2017-12-20T16:07:49.624Z,36.73
2017-12-20T16:10:20.728Z,31.90
2017-12-20T16:12:51.300Z,45.43
2017-12-20T16:15:22.602Z,31.63
2017-12-20T16:17:53.102Z,30.00
2017-12-20T16:20:24.015Z,36.47
2017-12-20T16:22:55.252Z,35.47
2017-12-20T16:25:25.769Z,34.20
2017-12-20T16:27:57.146Z,31.77
2017-12-20T16:30:28.563Z,36.37
2017-12-20T16:32:59.082Z,37.57
2017-12-20T16:35:29.497Z,36.10
2017-12-20T16:38:00.050Z,34.20
2017-12-20T16:40:30.418Z,36.53
2017-12-20T16:43:01.746Z,37.53
2017-12-20T16:45:33.485Z,35.27
2017-12-20T16:48:03.967Z,27.37
2017-12-20T16:50:34.274Z,36.43
2017-12-20T16:53:04.700Z,37.63
2017-12-20T16:55:35.480Z,37.83
2017-12-20T16:58:05.797Z,41.77
2017-12-20T17:00:36.103Z,32.10
2017-12-20T17:03:07.845Z,43.87
2017-12-20T17:05:38.275Z,38.70
2017-12-20T17:08:09.203Z,32.07
2017-12-20T17:10:41.021Z,35.20
2017-12-20T17:13:12.172Z,36.67
2017-12-20T17:15:43.557Z,43.70
2017-12-20T17:18:14.006Z,29.30
2017-12-20T17:20:44.358Z,36.47
2017-12-20T17:23:15.090Z,40.07
2017-12-20T17:25:45.421Z,28.43
2017-12-20T17:28:16.172Z,39.27
2017-12-20T17:30:46.457Z,30.63
2017-12-20T17:33:16.994Z,27.30
2017-12-20T17:35:47.256Z,27.20
2017-12-20T17:38:18.314Z,23.37
2017-12-20T17:40:49.033Z,25.40
2017-12-20T17:43:20.276Z,29.63
2017-12-20T17:45:50.895Z,29.53
2017-12-20T17:48:21.823Z,33.87
2017-12-20T17:50:52.336Z,27.03
2017-12-20T17:53:22.657Z,39.30
2017-12-20T17:55:53.190Z,32.63
2017-12-20T17:58:24.493Z,32.73
2017-12-20T18:00:55.238Z,32.00
2017-12-20T18:03:25.878Z,31.47
2017-12-20T18:05:57.417Z,29.67
2017-12-20T18:08:28.727Z,34.83
2017-12-20T18:10:59.029Z,28.00
2017-12-20T18:13:30.628Z,36.17
2017-12-20T18:16:02.938Z,30.57
2017-12-20T18:18:34.466Z,36.27
2017-12-20T18:21:05.752Z,29.57
2017-12-20T18:23:36.578Z,36.67
2017-12-20T18:26:08.229Z,39.73
2017-12-20T18:28:38.870Z,43.60
2017-12-20T18:31:09.470Z,33.23
2017-12-20T18:33:40.038Z,35.00
2017-12-20T18:36:10.554Z,25.67
2017-12-20T18:38:41.054Z,29.23
2017-12-20T18:41:11.874Z,32.57
2017-12-20T18:43:42.278Z,33.67
2017-12-20T18:46:13.874Z,29.30
2017-12-20T18:48:44.382Z,26.10
2017-12-20T18:51:15.199Z,25.90
2017-12-20T18:53:46.591Z,30.70
2017-12-20T18:56:17.509Z,26.50
2017-12-20T18:58:47.961Z,43.13
2017-12-20T19:01:18.704Z,24.67
2017-12-20T19:03:49.472Z,38.37
2017-12-20T19:06:20.125Z,31.03
2017-12-20T19:08:50.497Z,30.77
2017-12-20T19:11:20.962Z,28.23
2017-12-20T19:13:51.275Z,41.97
2017-12-20T19:16:21.681Z,39.20
2017-12-20T19:18:53.054Z,26.20
2017-12-20T19:21:24.248Z,41.20
2017-12-20T19:23:54.965Z,25.57
2017-12-20T19:26:25.252Z,37.53
2017-12-20T19:28:55.658Z,30.63
2017-12-20T19:31:26.761Z,29.80
2017-12-20T19:33:57.481Z,37.27
2017-12-20T19:36:27.965Z,34.67
2017-12-20T19:38:58.545Z,34.70
2017-12-20T19:41:28.953Z,38.83
2017-12-20T19:43:59.406Z,37.33
2017-12-20T19:46:29.802Z,38.90
2017-12-20T19:49:01.233Z,35.17
2017-12-20T19:51:31.780Z,30.10
2017-12-20T19:54:02.331Z,37.23
2017-12-20T19:56:33.167Z,35.33
2017-12-20T19:59:03.646Z,30.27
2017-12-20T20:01:33.898Z,36.83
2017-12-20T20:04:04.615Z,40.90
2017-12-20T20:06:34.962Z,37.57
2017-12-20T20:09:06.101Z,23.70
2017-12-20T20:11:36.787Z,26.20
2017-12-20T20:14:07.263Z,26.07
2017-12-20T20:16:38.202Z,28.47
2017-12-20T20:19:08.565Z,32.77
2017-12-20T20:21:39.284Z,29.17
2017-12-20T20:24:10.125Z,26.70
2017-12-20T20:26:40.484Z,24.83
2017-12-20T20:29:10.924Z,33.00
2017-12-20T20:31:41.982Z,30.67
2017-12-20T20:34:13.497Z,35.10
2017-12-20T20:36:44.222Z,32.73
2017-12-20T20:39:14.557Z,31.13
2017-12-20T20:41:45.197Z,23.43
2017-12-20T20:44:15.817Z,33.13
2017-12-20T20:46:47.914Z,31.93
2017-12-20T20:49:20.324Z,31.20
2017-12-20T20:51:50.749Z,37.57
2017-12-20T20:54:22.920Z,33.00
2017-12-20T20:56:54.103Z,30.60
2017-12-20T20:59:24.874Z,34.23
2017-12-20T21:01:55.360Z,30.73
2017-12-20T21:04:26.875Z,23.27
2017-12-20T21:06:58.417Z,33.30
2017-12-20T21:09:29.362Z,35.27
2017-12-20T21:11:59.864Z,33.00
2017-12-20T21:14:30.405Z,27.20
2017-12-20T21:17:00.837Z,29.80
2017-12-20T21:19:31.428Z,27.97
2017-12-20T21:22:02.569Z,25.67
2017-12-20T21:24:35.008Z,29.60
2017-12-20T21:27:05.426Z,28.63
2017-12-20T21:29:37.766Z,19.37
2017-12-20T21:32:08.305Z,21.00
2017-12-20T21:34:39.154Z,29.57
2017-12-20T21:37:10.122Z,27.30
2017-12-20T21:39:41.879Z,20.37
2017-12-20T21:42:12.218Z,24.40
2017-12-20T21:44:44.393Z,22.73
2017-12-20T21:47:16.167Z,24.13
2017-12-20T21:49:47.770Z,22.63
2017-12-20T21:52:18.958Z,22.47
2017-12-20T21:54:49.489Z,25.53
2017-12-20T21:57:20.940Z,27.80
2017-12-20T21:59:52.704Z,23.20
2017-12-20T22:02:23.362Z,21.10
2017-12-20T22:05:03.048Z,22.87
2017-12-20T22:07:34.017Z,25.07
2017-12-20T22:10:04.559Z,28.47
2017-12-20T22:12:36.764Z,20.57
2017-12-20T22:15:07.226Z,25.20
2017-12-20T22:17:38.498Z,22.60
2017-12-20T22:20:08.998Z,22.40
2017-12-20T22:22:39.809Z,23.23
2017-12-20T22:25:10.790Z,23.97
2017-12-20T22:27:41.495Z,20.60
2017-12-20T22:30:11.927Z,25.17
2017-12-20T22:32:42.963Z,16.93
2017-12-20T22:35:14.214Z,18.90
2017-12-20T22:37:45.531Z,23.30
2017-12-20T22:40:16.821Z,19.87
2017-12-20T22:42:47.206Z,21.57
2017-12-20T22:45:17.911Z,29.70
2017-12-20T22:47:48.840Z,25.20
2017-12-20T22:50:19.267Z,25.57
2017-12-20T22:52:49.911Z,31.30
2017-12-20T22:55:20.693Z,22.40
2017-12-20T22:57:51.577Z,25.17
2017-12-20T23:00:27.196Z,19.37
2017-12-20T23:02:57.740Z,22.67
2017-12-20T23:05:28.248Z,19.73
2017-12-20T23:07:59.018Z,19.33
2017-12-20T23:10:30.081Z,25.60
2017-12-20T23:13:00.894Z,19.17
2017-12-20T23:15:31.344Z,19.53
2017-12-20T23:18:02.050Z,22.43
2017-12-20T23:20:32.356Z,21.97
2017-12-20T23:23:02.724Z,22.07
2017-12-20T23:25:33.898Z,19.30
2017-12-20T23:28:04.698Z,22.03
2017-12-20T23:30:35.638Z,18.87
2017-12-20T23:33:07.002Z,19.03
2017-12-20T23:35:37.862Z,23.43
2017-12-20T23:38:08.259Z,22.80
2017-12-20T23:40:38.546Z,25.07
2017-12-20T23:43:09.628Z,21.07
2017-12-20T23:45:40.066Z,21.50
2017-12-20T23:48:10.583Z,25.90
2017-12-20T23:50:41.117Z,25.23
2017-12-20T23:53:11.702Z,17.87
2017-12-20T23:55:41.917Z,22.00
2017-12-20T23:58:12.327Z,21.87
